logo
Search for airport 
image banner adimage banner adimage banner ad
image banner ad

EGMT - Thurrock

Located in Northolt, United Kingdom

ICAO - , IATA -

Data provided by Airmate  

General information

Coordinates: N51°32'17" E0°22'0"
Elevation is 30 feet MSL.
Magnetic variation is 0° East
View others Airports in England

Operational data

Special qualification required
Current time UTC:
Current local time:
Weather at : EGLC - London/City ( 22 km )
TAF: TAF EGLC 241657Z 2418/2421 02005KT 9999 FEW040
View NOTAMs / SUP AIP / TFR affecting this airport [VIEW]
Communications frequencies: [VIEW]

Runways:

RWY identifierQFULength (ft)Width (ft)SurfaceLDA (ft)
07R213366GRAS2133
25L213366GRAS2133
07L246133ASPH2461
25R246133ASPH2461

Airport contact information

Address: Northolt United Kingdom

Satellite view of EGMT